sensor_id;sensor_type;location;lat;lon;timestamp;P1;durP1;ratioP1;P2;durP2;ratioP2
33830;SDS011;20137;48.834;8.732;2022-10-26T00:00:29;4.70;;;2.00;;
33830;SDS011;20137;48.834;8.732;2022-10-26T00:02:55;8.52;;;2.45;;
33830;SDS011;20137;48.834;8.732;2022-10-26T00:05:22;7.78;;;2.10;;
33830;SDS011;20137;48.834;8.732;2022-10-26T00:07:49;3.88;;;1.65;;
33830;SDS011;20137;48.834;8.732;2022-10-26T00:10:15;6.78;;;2.72;;
33830;SDS011;20137;48.834;8.732;2022-10-26T00:12:41;5.95;;;2.10;;
33830;SDS011;20137;48.834;8.732;2022-10-26T00:15:07;5.07;;;2.35;;
33830;SDS011;20137;48.834;8.732;2022-10-26T00:17:33;11.15;;;2.90;;
33830;SDS011;20137;48.834;8.732;2022-10-26T00:19:59;4.80;;;1.95;;
33830;SDS011;20137;48.834;8.732;2022-10-26T00:22:26;3.53;;;1.88;;
33830;SDS011;20137;48.834;8.732;2022-10-26T00:24:52;8.38;;;2.05;;
33830;SDS011;20137;48.834;8.732;2022-10-26T00:27:18;5.18;;;2.05;;
33830;SDS011;20137;48.834;8.732;2022-10-26T00:29:44;7.07;;;1.70;;
33830;SDS011;20137;48.834;8.732;2022-10-26T00:32:10;5.32;;;2.10;;
33830;SDS011;20137;48.834;8.732;2022-10-26T00:34:36;6.43;;;1.85;;
33830;SDS011;20137;48.834;8.732;2022-10-26T00:37:02;5.32;;;1.60;;
33830;SDS011;20137;48.834;8.732;2022-10-26T00:39:28;4.72;;;1.83;;
33830;SDS011;20137;48.834;8.732;2022-10-26T00:41:54;4.07;;;1.90;;
33830;SDS011;20137;48.834;8.732;2022-10-26T00:47:07;4.75;;;1.67;;
33830;SDS011;20137;48.834;8.732;2022-10-26T00:49:34;5.40;;;1.80;;
33830;SDS011;20137;48.834;8.732;2022-10-26T00:51:59;3.30;;;1.80;;
33830;SDS011;20137;48.834;8.732;2022-10-26T00:54:26;4.75;;;1.70;;
33830;SDS011;20137;48.834;8.732;2022-10-26T00:56:52;4.45;;;2.03;;
33830;SDS011;20137;48.834;8.732;2022-10-26T00:59:19;4.75;;;1.85;;
33830;SDS011;20137;48.834;8.732;2022-10-26T01:01:46;9.85;;;2.08;;
33830;SDS011;20137;48.834;8.732;2022-10-26T01:04:13;6.00;;;1.60;;
33830;SDS011;20137;48.834;8.732;2022-10-26T01:06:40;3.88;;;2.08;;
33830;SDS011;20137;48.834;8.732;2022-10-26T01:09:08;5.43;;;2.00;;
33830;SDS011;20137;48.834;8.732;2022-10-26T01:11:35;8.52;;;2.15;;
33830;SDS011;20137;48.834;8.732;2022-10-26T01:14:03;4.78;;;1.85;;
33830;SDS011;20137;48.834;8.732;2022-10-26T01:16:41;4.63;;;1.75;;
33830;SDS011;20137;48.834;8.732;2022-10-26T01:19:36;9.23;;;2.15;;
33830;SDS011;20137;48.834;8.732;2022-10-26T01:22:15;6.13;;;2.05;;
33830;SDS011;20137;48.834;8.732;2022-10-26T01:30:08;6.85;;;1.98;;
33830;SDS011;20137;48.834;8.732;2022-10-26T01:35:07;10.90;;;1.88;;
33830;SDS011;20137;48.834;8.732;2022-10-26T01:37:36;5.78;;;1.75;;
33830;SDS011;20137;48.834;8.732;2022-10-26T01:40:18;7.03;;;1.75;;
33830;SDS011;20137;48.834;8.732;2022-10-26T01:42:46;6.43;;;2.15;;
33830;SDS011;20137;48.834;8.732;2022-10-26T01:45:14;5.50;;;1.48;;
33830;SDS011;20137;48.834;8.732;2022-10-26T01:47:40;6.13;;;2.10;;
33830;SDS011;20137;48.834;8.732;2022-10-26T01:50:06;9.13;;;1.98;;
33830;SDS011;20137;48.834;8.732;2022-10-26T01:52:33;3.83;;;1.60;;
33830;SDS011;20137;48.834;8.732;2022-10-26T01:55:31;3.85;;;1.70;;
33830;SDS011;20137;48.834;8.732;2022-10-26T01:57:51;7.43;;;1.70;;
33830;SDS011;20137;48.834;8.732;2022-10-26T02:00:18;4.53;;;1.88;;
33830;SDS011;20137;48.834;8.732;2022-10-26T02:05:30;5.82;;;1.73;;
33830;SDS011;20137;48.834;8.732;2022-10-26T02:08:35;4.90;;;1.70;;
33830;SDS011;20137;48.834;8.732;2022-10-26T02:21:16;7.63;;;1.70;;
33830;SDS011;20137;48.834;8.732;2022-10-26T02:23:44;9.23;;;1.98;;
33830;SDS011;20137;48.834;8.732;2022-10-26T02:26:12;4.65;;;1.27;;
33830;SDS011;20137;48.834;8.732;2022-10-26T02:28:41;4.25;;;1.48;;
33830;SDS011;20137;48.834;8.732;2022-10-26T02:31:09;3.58;;;1.42;;
33830;SDS011;20137;48.834;8.732;2022-10-26T02:33:37;7.55;;;2.00;;
33830;SDS011;20137;48.834;8.732;2022-10-26T02:36:07;3.08;;;1.50;;
33830;SDS011;20137;48.834;8.732;2022-10-26T02:38:35;3.45;;;1.23;;
33830;SDS011;20137;48.834;8.732;2022-10-26T02:41:02;5.53;;;1.40;;
33830;SDS011;20137;48.834;8.732;2022-10-26T02:43:28;5.90;;;1.60;;
33830;SDS011;20137;48.834;8.732;2022-10-26T02:46:02;3.63;;;1.33;;
33830;SDS011;20137;48.834;8.732;2022-10-26T02:48:29;5.45;;;1.35;;
33830;SDS011;20137;48.834;8.732;2022-10-26T02:50:59;4.75;;;1.40;;
33830;SDS011;20137;48.834;8.732;2022-10-26T02:55:53;3.45;;;1.35;;
33830;SDS011;20137;48.834;8.732;2022-10-26T02:58:23;3.85;;;1.27;;
33830;SDS011;20137;48.834;8.732;2022-10-26T03:00:50;4.13;;;1.20;;
33830;SDS011;20137;48.834;8.732;2022-10-26T03:03:16;7.07;;;1.52;;
33830;SDS011;20137;48.834;8.732;2022-10-26T03:05:43;3.75;;;1.25;;
33830;SDS011;20137;48.834;8.732;2022-10-26T03:08:09;8.15;;;1.75;;
33830;SDS011;20137;48.834;8.732;2022-10-26T03:10:38;5.72;;;1.58;;
33830;SDS011;20137;48.834;8.732;2022-10-26T03:13:05;2.70;;;1.50;;
33830;SDS011;20137;48.834;8.732;2022-10-26T03:15:31;6.53;;;1.63;;
33830;SDS011;20137;48.834;8.732;2022-10-26T03:17:57;4.45;;;1.30;;
33830;SDS011;20137;48.834;8.732;2022-10-26T03:20:23;5.78;;;1.35;;
33830;SDS011;20137;48.834;8.732;2022-10-26T03:22:49;5.30;;;1.50;;
33830;SDS011;20137;48.834;8.732;2022-10-26T03:25:15;5.18;;;1.35;;
33830;SDS011;20137;48.834;8.732;2022-10-26T03:27:41;5.57;;;1.40;;
33830;SDS011;20137;48.834;8.732;2022-10-26T03:30:08;5.00;;;1.33;;
33830;SDS011;20137;48.834;8.732;2022-10-26T03:32:34;8.80;;;2.15;;
33830;SDS011;20137;48.834;8.732;2022-10-26T03:35:03;5.63;;;1.40;;
33830;SDS011;20137;48.834;8.732;2022-10-26T03:37:29;5.00;;;1.40;;
33830;SDS011;20137;48.834;8.732;2022-10-26T03:39:55;4.38;;;1.40;;
33830;SDS011;20137;48.834;8.732;2022-10-26T03:42:21;5.28;;;1.45;;
33830;SDS011;20137;48.834;8.732;2022-10-26T03:44:47;3.28;;;1.65;;
33830;SDS011;20137;48.834;8.732;2022-10-26T03:47:13;5.43;;;1.35;;
33830;SDS011;20137;48.834;8.732;2022-10-26T03:49:39;4.90;;;1.48;;
33830;SDS011;20137;48.834;8.732;2022-10-26T03:52:05;3.17;;;1.52;;
33830;SDS011;20137;48.834;8.732;2022-10-26T03:54:31;5.15;;;1.70;;
33830;SDS011;20137;48.834;8.732;2022-10-26T03:56:57;4.60;;;1.67;;
33830;SDS011;20137;48.834;8.732;2022-10-26T03:59:23;3.63;;;1.20;;
33830;SDS011;20137;48.834;8.732;2022-10-26T04:01:49;7.53;;;1.80;;
33830;SDS011;20137;48.834;8.732;2022-10-26T04:04:15;4.95;;;1.42;;
33830;SDS011;20137;48.834;8.732;2022-10-26T04:06:41;4.55;;;1.40;;
33830;SDS011;20137;48.834;8.732;2022-10-26T04:09:07;4.45;;;1.63;;
33830;SDS011;20137;48.834;8.732;2022-10-26T04:11:33;3.60;;;1.35;;
33830;SDS011;20137;48.834;8.732;2022-10-26T04:13:59;1.80;;;1.48;;
33830;SDS011;20137;48.834;8.732;2022-10-26T04:16:25;6.30;;;1.70;;
33830;SDS011;20137;48.834;8.732;2022-10-26T04:18:51;3.83;;;1.73;;
33830;SDS011;20137;48.834;8.732;2022-10-26T04:21:18;2.03;;;1.40;;
33830;SDS011;20137;48.834;8.732;2022-10-26T04:23:44;4.90;;;1.40;;
33830;SDS011;20137;48.834;8.732;2022-10-26T04:26:10;4.60;;;1.70;;
33830;SDS011;20137;48.834;8.732;2022-10-26T04:28:36;8.27;;;1.83;;
33830;SDS011;20137;48.834;8.732;2022-10-26T04:31:02;5.50;;;1.73;;
33830;SDS011;20137;48.834;8.732;2022-10-26T04:33:28;7.80;;;1.95;;
33830;SDS011;20137;48.834;8.732;2022-10-26T04:35:57;5.95;;;2.10;;
33830;SDS011;20137;48.834;8.732;2022-10-26T04:38:24;4.57;;;2.10;;
33830;SDS011;20137;48.834;8.732;2022-10-26T04:40:50;4.00;;;2.03;;
33830;SDS011;20137;48.834;8.732;2022-10-26T04:43:16;4.20;;;1.80;;
33830;SDS011;20137;48.834;8.732;2022-10-26T04:45:42;4.95;;;1.70;;
33830;SDS011;20137;48.834;8.732;2022-10-26T04:48:09;3.83;;;1.48;;
33830;SDS011;20137;48.834;8.732;2022-10-26T04:50:36;4.93;;;2.03;;
33830;SDS011;20137;48.834;8.732;2022-10-26T04:53:05;6.68;;;2.00;;
33830;SDS011;20137;48.834;8.732;2022-10-26T04:55:32;9.45;;;1.77;;
33830;SDS011;20137;48.834;8.732;2022-10-26T04:57:58;3.90;;;1.63;;
33830;SDS011;20137;48.834;8.732;2022-10-26T05:00:24;5.47;;;2.25;;
33830;SDS011;20137;48.834;8.732;2022-10-26T05:02:50;6.53;;;2.22;;
33830;SDS011;20137;48.834;8.732;2022-10-26T05:05:16;4.50;;;2.08;;
33830;SDS011;20137;48.834;8.732;2022-10-26T05:07:42;6.18;;;2.05;;
33830;SDS011;20137;48.834;8.732;2022-10-26T05:10:08;4.07;;;2.00;;
33830;SDS011;20137;48.834;8.732;2022-10-26T05:12:35;4.53;;;1.90;;
33830;SDS011;20137;48.834;8.732;2022-10-26T05:15:01;5.78;;;2.00;;
33830;SDS011;20137;48.834;8.732;2022-10-26T05:17:27;7.43;;;2.35;;
33830;SDS011;20137;48.834;8.732;2022-10-26T05:19:53;7.50;;;2.00;;
33830;SDS011;20137;48.834;8.732;2022-10-26T05:22:23;5.85;;;1.38;;
33830;SDS011;20137;48.834;8.732;2022-10-26T05:24:49;3.90;;;2.10;;
33830;SDS011;20137;48.834;8.732;2022-10-26T05:27:15;13.98;;;2.17;;
33830;SDS011;20137;48.834;8.732;2022-10-26T05:29:41;3.08;;;1.88;;
33830;SDS011;20137;48.834;8.732;2022-10-26T05:32:07;7.78;;;2.25;;
33830;SDS011;20137;48.834;8.732;2022-10-26T05:34:33;6.97;;;2.42;;
33830;SDS011;20137;48.834;8.732;2022-10-26T05:36:59;7.20;;;2.30;;
33830;SDS011;20137;48.834;8.732;2022-10-26T05:39:24;5.38;;;2.25;;
33830;SDS011;20137;48.834;8.732;2022-10-26T05:41:50;8.25;;;2.15;;
33830;SDS011;20137;48.834;8.732;2022-10-26T05:44:16;4.95;;;1.95;;
33830;SDS011;20137;48.834;8.732;2022-10-26T05:46:42;5.53;;;2.60;;
33830;SDS011;20137;48.834;8.732;2022-10-26T05:49:11;8.95;;;2.22;;
33830;SDS011;20137;48.834;8.732;2022-10-26T05:51:37;8.07;;;2.75;;
33830;SDS011;20137;48.834;8.732;2022-10-26T05:54:03;5.32;;;2.03;;
33830;SDS011;20137;48.834;8.732;2022-10-26T05:56:33;5.25;;;1.90;;
33830;SDS011;20137;48.834;8.732;2022-10-26T05:59:00;7.40;;;2.25;;
33830;SDS011;20137;48.834;8.732;2022-10-26T06:04:01;5.25;;;2.00;;
33830;SDS011;20137;48.834;8.732;2022-10-26T06:06:36;3.95;;;1.70;;
33830;SDS011;20137;48.834;8.732;2022-10-26T06:09:03;7.90;;;1.70;;
33830;SDS011;20137;48.834;8.732;2022-10-26T06:11:30;9.68;;;2.13;;
33830;SDS011;20137;48.834;8.732;2022-10-26T06:13:56;7.50;;;2.35;;
33830;SDS011;20137;48.834;8.732;2022-10-26T06:18:57;8.35;;;2.17;;
33830;SDS011;20137;48.834;8.732;2022-10-26T06:26:34;5.18;;;2.78;;
33830;SDS011;20137;48.834;8.732;2022-10-26T06:29:06;8.45;;;2.33;;
33830;SDS011;20137;48.834;8.732;2022-10-26T06:31:35;7.38;;;2.10;;
33830;SDS011;20137;48.834;8.732;2022-10-26T06:34:01;6.10;;;2.10;;
33830;SDS011;20137;48.834;8.732;2022-10-26T06:36:27;8.05;;;2.08;;
33830;SDS011;20137;48.834;8.732;2022-10-26T06:39:14;5.68;;;2.40;;
33830;SDS011;20137;48.834;8.732;2022-10-26T06:41:40;8.05;;;2.83;;
33830;SDS011;20137;48.834;8.732;2022-10-26T06:44:07;7.30;;;2.53;;
33830;SDS011;20137;48.834;8.732;2022-10-26T06:46:44;5.43;;;2.45;;
33830;SDS011;20137;48.834;8.732;2022-10-26T06:51:48;6.40;;;2.53;;
33830;SDS011;20137;48.834;8.732;2022-10-26T06:56:42;11.15;;;2.80;;
33830;SDS011;20137;48.834;8.732;2022-10-26T06:59:13;9.45;;;2.70;;
33830;SDS011;20137;48.834;8.732;2022-10-26T07:01:40;9.25;;;2.75;;
33830;SDS011;20137;48.834;8.732;2022-10-26T07:04:06;7.63;;;2.35;;
33830;SDS011;20137;48.834;8.732;2022-10-26T07:06:32;7.85;;;3.03;;
33830;SDS011;20137;48.834;8.732;2022-10-26T07:08:58;9.40;;;3.00;;
33830;SDS011;20137;48.834;8.732;2022-10-26T07:11:24;11.40;;;3.40;;
33830;SDS011;20137;48.834;8.732;2022-10-26T07:13:50;9.15;;;3.28;;
33830;SDS011;20137;48.834;8.732;2022-10-26T07:16:16;11.00;;;2.95;;
33830;SDS011;20137;48.834;8.732;2022-10-26T07:18:42;10.43;;;3.38;;
33830;SDS011;20137;48.834;8.732;2022-10-26T07:21:08;9.63;;;3.38;;
33830;SDS011;20137;48.834;8.732;2022-10-26T07:23:34;12.93;;;3.42;;
33830;SDS011;20137;48.834;8.732;2022-10-26T07:26:00;15.85;;;3.83;;
33830;SDS011;20137;48.834;8.732;2022-10-26T07:28:26;12.27;;;3.05;;
33830;SDS011;20137;48.834;8.732;2022-10-26T07:30:52;9.52;;;2.72;;
33830;SDS011;20137;48.834;8.732;2022-10-26T07:33:18;15.55;;;3.97;;
33830;SDS011;20137;48.834;8.732;2022-10-26T07:35:45;15.05;;;3.38;;
33830;SDS011;20137;48.834;8.732;2022-10-26T07:38:11;15.63;;;3.42;;
33830;SDS011;20137;48.834;8.732;2022-10-26T07:40:37;8.10;;;3.20;;
33830;SDS011;20137;48.834;8.732;2022-10-26T07:43:03;12.27;;;3.83;;
33830;SDS011;20137;48.834;8.732;2022-10-26T07:45:29;15.45;;;4.40;;
33830;SDS011;20137;48.834;8.732;2022-10-26T07:47:55;10.18;;;3.22;;
33830;SDS011;20137;48.834;8.732;2022-10-26T07:50:22;14.43;;;3.80;;
33830;SDS011;20137;48.834;8.732;2022-10-26T07:52:48;13.27;;;3.47;;
33830;SDS011;20137;48.834;8.732;2022-10-26T07:55:14;8.82;;;3.38;;
33830;SDS011;20137;48.834;8.732;2022-10-26T07:57:40;12.18;;;3.17;;
33830;SDS011;20137;48.834;8.732;2022-10-26T08:00:06;13.73;;;3.00;;
33830;SDS011;20137;48.834;8.732;2022-10-26T08:02:33;8.93;;;3.28;;
33830;SDS011;20137;48.834;8.732;2022-10-26T08:04:59;9.90;;;3.05;;
33830;SDS011;20137;48.834;8.732;2022-10-26T08:07:25;8.18;;;2.90;;
33830;SDS011;20137;48.834;8.732;2022-10-26T08:09:51;13.30;;;3.63;;
33830;SDS011;20137;48.834;8.732;2022-10-26T08:12:18;11.60;;;3.28;;
33830;SDS011;20137;48.834;8.732;2022-10-26T08:14:44;9.50;;;3.50;;
33830;SDS011;20137;48.834;8.732;2022-10-26T08:17:10;11.98;;;2.83;;
33830;SDS011;20137;48.834;8.732;2022-10-26T08:19:36;9.82;;;3.05;;
33830;SDS011;20137;48.834;8.732;2022-10-26T08:22:02;9.93;;;3.03;;
33830;SDS011;20137;48.834;8.732;2022-10-26T08:24:28;14.35;;;3.53;;
33830;SDS011;20137;48.834;8.732;2022-10-26T08:26:54;12.23;;;3.50;;
33830;SDS011;20137;48.834;8.732;2022-10-26T08:29:20;14.73;;;3.55;;
33830;SDS011;20137;48.834;8.732;2022-10-26T08:31:46;17.08;;;3.38;;
33830;SDS011;20137;48.834;8.732;2022-10-26T08:34:13;11.20;;;3.42;;
33830;SDS011;20137;48.834;8.732;2022-10-26T08:36:39;12.40;;;2.85;;
33830;SDS011;20137;48.834;8.732;2022-10-26T08:39:05;13.65;;;2.95;;
33830;SDS011;20137;48.834;8.732;2022-10-26T08:44:04;10.98;;;2.95;;
33830;SDS011;20137;48.834;8.732;2022-10-26T08:46:34;12.18;;;2.80;;
33830;SDS011;20137;48.834;8.732;2022-10-26T08:49:03;9.75;;;3.00;;
33830;SDS011;20137;48.834;8.732;2022-10-26T08:51:33;12.18;;;3.53;;
33830;SDS011;20137;48.834;8.732;2022-10-26T08:56:27;11.98;;;2.60;;
33830;SDS011;20137;48.834;8.732;2022-10-26T08:58:58;8.07;;;2.50;;
33830;SDS011;20137;48.834;8.732;2022-10-26T09:01:26;10.43;;;3.35;;
33830;SDS011;20137;48.834;8.732;2022-10-26T09:04:01;9.82;;;2.60;;
33830;SDS011;20137;48.834;8.732;2022-10-26T09:06:38;11.57;;;3.00;;
33830;SDS011;20137;48.834;8.732;2022-10-26T09:09:13;10.35;;;3.17;;
33830;SDS011;20137;48.834;8.732;2022-10-26T09:11:45;11.00;;;3.05;;
33830;SDS011;20137;48.834;8.732;2022-10-26T09:21:40;7.43;;;2.80;;
33830;SDS011;20137;48.834;8.732;2022-10-26T09:24:15;10.00;;;3.03;;
33830;SDS011;20137;48.834;8.732;2022-10-26T09:29:15;6.95;;;2.53;;
33830;SDS011;20137;48.834;8.732;2022-10-26T09:31:44;13.70;;;2.83;;
33830;SDS011;20137;48.834;8.732;2022-10-26T09:36:53;11.15;;;2.80;;
33830;SDS011;20137;48.834;8.732;2022-10-26T09:39:27;10.77;;;2.80;;
33830;SDS011;20137;48.834;8.732;2022-10-26T09:41:56;8.68;;;2.65;;
33830;SDS011;20137;48.834;8.732;2022-10-26T09:44:30;7.78;;;2.42;;
33830;SDS011;20137;48.834;8.732;2022-10-26T09:47:01;9.50;;;2.75;;
33830;SDS011;20137;48.834;8.732;2022-10-26T09:49:40;8.10;;;2.88;;
33830;SDS011;20137;48.834;8.732;2022-10-26T09:52:12;5.10;;;2.05;;
33830;SDS011;20137;48.834;8.732;2022-10-26T09:54:38;10.85;;;2.40;;
33830;SDS011;20137;48.834;8.732;2022-10-26T09:57:04;9.05;;;2.00;;
33830;SDS011;20137;48.834;8.732;2022-10-26T09:59:32;9.18;;;2.50;;
33830;SDS011;20137;48.834;8.732;2022-10-26T10:02:02;7.38;;;2.15;;
33830;SDS011;20137;48.834;8.732;2022-10-26T10:04:44;9.10;;;2.83;;
33830;SDS011;20137;48.834;8.732;2022-10-26T10:07:12;8.75;;;2.22;;
33830;SDS011;20137;48.834;8.732;2022-10-26T10:09:39;8.88;;;2.50;;
33830;SDS011;20137;48.834;8.732;2022-10-26T10:12:17;7.15;;;2.03;;
33830;SDS011;20137;48.834;8.732;2022-10-26T10:17:18;7.88;;;2.17;;
33830;SDS011;20137;48.834;8.732;2022-10-26T10:19:45;8.00;;;1.95;;
33830;SDS011;20137;48.834;8.732;2022-10-26T10:24:41;11.43;;;2.00;;
33830;SDS011;20137;48.834;8.732;2022-10-26T10:29:44;11.20;;;2.50;;
33830;SDS011;20137;48.834;8.732;2022-10-26T10:32:14;9.48;;;1.80;;
33830;SDS011;20137;48.834;8.732;2022-10-26T10:34:40;8.85;;;2.03;;
33830;SDS011;20137;48.834;8.732;2022-10-26T10:37:15;6.95;;;1.95;;
33830;SDS011;20137;48.834;8.732;2022-10-26T10:42:19;5.93;;;1.95;;
33830;SDS011;20137;48.834;8.732;2022-10-26T10:44:49;8.25;;;2.08;;
33830;SDS011;20137;48.834;8.732;2022-10-26T10:47:20;13.27;;;2.33;;
33830;SDS011;20137;48.834;8.732;2022-10-26T10:49:54;8.18;;;2.20;;
33830;SDS011;20137;48.834;8.732;2022-10-26T10:52:25;7.35;;;2.30;;
33830;SDS011;20137;48.834;8.732;2022-10-26T10:54:54;8.68;;;2.53;;
33830;SDS011;20137;48.834;8.732;2022-10-26T10:57:28;8.93;;;2.47;;
33830;SDS011;20137;48.834;8.732;2022-10-26T11:08:01;6.40;;;2.17;;
33830;SDS011;20137;48.834;8.732;2022-10-26T11:13:02;10.70;;;1.77;;
33830;SDS011;20137;48.834;8.732;2022-10-26T11:15:32;5.78;;;1.95;;
33830;SDS011;20137;48.834;8.732;2022-10-26T11:20:28;8.68;;;1.80;;
33830;SDS011;20137;48.834;8.732;2022-10-26T11:23:00;9.82;;;2.10;;
33830;SDS011;20137;48.834;8.732;2022-10-26T11:25:33;5.88;;;1.83;;
33830;SDS011;20137;48.834;8.732;2022-10-26T11:28:02;6.90;;;1.63;;
33830;SDS011;20137;48.834;8.732;2022-10-26T11:30:30;7.03;;;1.95;;
33830;SDS011;20137;48.834;8.732;2022-10-26T11:38:00;6.78;;;1.58;;
33830;SDS011;20137;48.834;8.732;2022-10-26T11:40:37;6.28;;;1.80;;
33830;SDS011;20137;48.834;8.732;2022-10-26T11:45:57;6.68;;;1.80;;
33830;SDS011;20137;48.834;8.732;2022-10-26T11:50:52;8.73;;;1.80;;
33830;SDS011;20137;48.834;8.732;2022-10-26T11:53:38;5.95;;;1.52;;
33830;SDS011;20137;48.834;8.732;2022-10-26T11:56:09;5.72;;;1.52;;
33830;SDS011;20137;48.834;8.732;2022-10-26T11:58:38;8.10;;;1.90;;
33830;SDS011;20137;48.834;8.732;2022-10-26T12:01:08;3.33;;;1.52;;
33830;SDS011;20137;48.834;8.732;2022-10-26T12:03:40;3.85;;;1.48;;
33830;SDS011;20137;48.834;8.732;2022-10-26T12:06:09;6.35;;;1.70;;
33830;SDS011;20137;48.834;8.732;2022-10-26T12:08:36;9.18;;;1.60;;
33830;SDS011;20137;48.834;8.732;2022-10-26T12:11:17;8.52;;;2.03;;
33830;SDS011;20137;48.834;8.732;2022-10-26T12:13:46;5.63;;;1.58;;
33830;SDS011;20137;48.834;8.732;2022-10-26T12:18:47;6.95;;;1.98;;
33830;SDS011;20137;48.834;8.732;2022-10-26T12:21:15;6.43;;;1.90;;
33830;SDS011;20137;48.834;8.732;2022-10-26T12:33:57;12.48;;;2.03;;
33830;SDS011;20137;48.834;8.732;2022-10-26T12:39:23;4.32;;;2.05;;
33830;SDS011;20137;48.834;8.732;2022-10-26T12:41:54;7.25;;;1.20;;
33830;SDS011;20137;48.834;8.732;2022-10-26T12:47:02;5.38;;;1.67;;
33830;SDS011;20137;48.834;8.732;2022-10-26T12:52:18;11.32;;;1.70;;
33830;SDS011;20137;48.834;8.732;2022-10-26T12:54:55;8.52;;;1.50;;
33830;SDS011;20137;48.834;8.732;2022-10-26T12:59:52;7.45;;;1.48;;
33830;SDS011;20137;48.834;8.732;2022-10-26T13:07:23;6.93;;;1.85;;
33830;SDS011;20137;48.834;8.732;2022-10-26T13:09:58;4.93;;;1.73;;
33830;SDS011;20137;48.834;8.732;2022-10-26T13:12:25;11.25;;;2.33;;
33830;SDS011;20137;48.834;8.732;2022-10-26T13:15:05;9.02;;;2.13;;
33830;SDS011;20137;48.834;8.732;2022-10-26T13:17:43;10.15;;;1.90;;
33830;SDS011;20137;48.834;8.732;2022-10-26T13:20:17;7.27;;;1.90;;
33830;SDS011;20137;48.834;8.732;2022-10-26T13:22:44;6.47;;;2.05;;
33830;SDS011;20137;48.834;8.732;2022-10-26T13:28:52;9.10;;;2.20;;
33830;SDS011;20137;48.834;8.732;2022-10-26T13:30:52;9.18;;;2.35;;
33830;SDS011;20137;48.834;8.732;2022-10-26T13:33:30;9.93;;;2.33;;
33830;SDS011;20137;48.834;8.732;2022-10-26T13:35:59;10.77;;;2.03;;
33830;SDS011;20137;48.834;8.732;2022-10-26T13:38:28;8.20;;;1.95;;
33830;SDS011;20137;48.834;8.732;2022-10-26T13:40:59;9.52;;;2.25;;
33830;SDS011;20137;48.834;8.732;2022-10-26T13:43:27;7.82;;;2.13;;
33830;SDS011;20137;48.834;8.732;2022-10-26T13:45:59;6.18;;;2.13;;
33830;SDS011;20137;48.834;8.732;2022-10-26T13:48:33;4.57;;;1.70;;
33830;SDS011;20137;48.834;8.732;2022-10-26T13:51:02;6.82;;;1.58;;
33830;SDS011;20137;48.834;8.732;2022-10-26T13:59:02;6.05;;;2.08;;
33830;SDS011;20137;48.834;8.732;2022-10-26T14:01:29;8.13;;;2.00;;
33830;SDS011;20137;48.834;8.732;2022-10-26T14:03:56;5.72;;;1.65;;
33830;SDS011;20137;48.834;8.732;2022-10-26T14:06:26;6.13;;;1.90;;
33830;SDS011;20137;48.834;8.732;2022-10-26T14:08:53;7.57;;;2.13;;
33830;SDS011;20137;48.834;8.732;2022-10-26T14:11:20;10.25;;;2.08;;
33830;SDS011;20137;48.834;8.732;2022-10-26T14:13:47;6.47;;;2.00;;
33830;SDS011;20137;48.834;8.732;2022-10-26T14:16:15;9.00;;;1.88;;
33830;SDS011;20137;48.834;8.732;2022-10-26T14:18:45;6.57;;;1.80;;
33830;SDS011;20137;48.834;8.732;2022-10-26T14:21:12;11.18;;;1.88;;
33830;SDS011;20137;48.834;8.732;2022-10-26T14:23:47;2.70;;;1.55;;
33830;SDS011;20137;48.834;8.732;2022-10-26T14:26:56;9.27;;;1.67;;
33830;SDS011;20137;48.834;8.732;2022-10-26T14:29:03;10.02;;;1.65;;
33830;SDS011;20137;48.834;8.732;2022-10-26T14:31:32;7.90;;;1.98;;
33830;SDS011;20137;48.834;8.732;2022-10-26T14:34:00;10.02;;;1.60;;
33830;SDS011;20137;48.834;8.732;2022-10-26T14:36:39;9.05;;;2.10;;
33830;SDS011;20137;48.834;8.732;2022-10-26T14:39:08;9.05;;;2.28;;
33830;SDS011;20137;48.834;8.732;2022-10-26T14:41:38;11.07;;;2.33;;
33830;SDS011;20137;48.834;8.732;2022-10-26T14:44:04;4.03;;;1.52;;
33830;SDS011;20137;48.834;8.732;2022-10-26T14:46:38;11.48;;;2.58;;
33830;SDS011;20137;48.834;8.732;2022-10-26T14:49:11;9.23;;;1.80;;
33830;SDS011;20137;48.834;8.732;2022-10-26T14:51:40;4.63;;;1.80;;
33830;SDS011;20137;48.834;8.732;2022-10-26T14:54:16;7.05;;;1.85;;
33830;SDS011;20137;48.834;8.732;2022-10-26T14:56:44;9.93;;;1.92;;
33830;SDS011;20137;48.834;8.732;2022-10-26T14:59:26;7.97;;;2.75;;
33830;SDS011;20137;48.834;8.732;2022-10-26T15:04:40;5.85;;;1.75;;
33830;SDS011;20137;48.834;8.732;2022-10-26T15:07:08;5.90;;;2.05;;
33830;SDS011;20137;48.834;8.732;2022-10-26T15:12:19;11.23;;;1.98;;
33830;SDS011;20137;48.834;8.732;2022-10-26T15:14:45;7.80;;;1.83;;
33830;SDS011;20137;48.834;8.732;2022-10-26T15:17:12;6.57;;;1.90;;
33830;SDS011;20137;48.834;8.732;2022-10-26T15:19:43;6.70;;;2.28;;
33830;SDS011;20137;48.834;8.732;2022-10-26T15:22:15;11.93;;;2.53;;
33830;SDS011;20137;48.834;8.732;2022-10-26T15:24:45;9.82;;;2.05;;
33830;SDS011;20137;48.834;8.732;2022-10-26T15:27:15;6.53;;;2.28;;
33830;SDS011;20137;48.834;8.732;2022-10-26T15:29:42;4.50;;;1.65;;
33830;SDS011;20137;48.834;8.732;2022-10-26T15:37:39;5.47;;;1.90;;
33830;SDS011;20137;48.834;8.732;2022-10-26T15:40:05;4.20;;;1.95;;
33830;SDS011;20137;48.834;8.732;2022-10-26T15:42:34;11.52;;;2.17;;
33830;SDS011;20137;48.834;8.732;2022-10-26T15:45:02;8.82;;;2.15;;
33830;SDS011;20137;48.834;8.732;2022-10-26T15:47:31;8.18;;;2.38;;
33830;SDS011;20137;48.834;8.732;2022-10-26T15:49:58;10.27;;;3.65;;
33830;SDS011;20137;48.834;8.732;2022-10-26T15:52:24;6.75;;;2.72;;
33830;SDS011;20137;48.834;8.732;2022-10-26T15:54:50;12.50;;;3.78;;
33830;SDS011;20137;48.834;8.732;2022-10-26T15:57:16;9.52;;;3.80;;
33830;SDS011;20137;48.834;8.732;2022-10-26T15:59:42;11.80;;;5.50;;
33830;SDS011;20137;48.834;8.732;2022-10-26T16:02:12;19.15;;;8.98;;
33830;SDS011;20137;48.834;8.732;2022-10-26T16:04:38;22.10;;;8.98;;
33830;SDS011;20137;48.834;8.732;2022-10-26T16:07:04;24.63;;;11.77;;
33830;SDS011;20137;48.834;8.732;2022-10-26T16:09:35;26.98;;;12.68;;
33830;SDS011;20137;48.834;8.732;2022-10-26T16:12:01;27.50;;;13.20;;
33830;SDS011;20137;48.834;8.732;2022-10-26T16:14:27;17.40;;;7.50;;
33830;SDS011;20137;48.834;8.732;2022-10-26T16:16:53;14.30;;;6.22;;
33830;SDS011;20137;48.834;8.732;2022-10-26T16:19:19;10.40;;;4.47;;
33830;SDS011;20137;48.834;8.732;2022-10-26T16:21:45;12.57;;;4.95;;
33830;SDS011;20137;48.834;8.732;2022-10-26T16:24:11;8.02;;;4.80;;
33830;SDS011;20137;48.834;8.732;2022-10-26T16:26:37;10.80;;;4.95;;
33830;SDS011;20137;48.834;8.732;2022-10-26T16:29:03;9.27;;;4.20;;
33830;SDS011;20137;48.834;8.732;2022-10-26T16:31:29;12.07;;;4.20;;
33830;SDS011;20137;48.834;8.732;2022-10-26T16:33:55;9.98;;;4.85;;
33830;SDS011;20137;48.834;8.732;2022-10-26T16:36:21;14.43;;;5.10;;
33830;SDS011;20137;48.834;8.732;2022-10-26T16:38:47;6.82;;;4.13;;
33830;SDS011;20137;48.834;8.732;2022-10-26T16:41:13;8.32;;;4.20;;
33830;SDS011;20137;48.834;8.732;2022-10-26T16:43:43;14.07;;;5.00;;
33830;SDS011;20137;48.834;8.732;2022-10-26T16:46:17;10.60;;;4.75;;
33830;SDS011;20137;48.834;8.732;2022-10-26T16:48:44;13.68;;;4.78;;
33830;SDS011;20137;48.834;8.732;2022-10-26T16:51:11;7.63;;;4.30;;
33830;SDS011;20137;48.834;8.732;2022-10-26T16:53:37;12.52;;;5.00;;
33830;SDS011;20137;48.834;8.732;2022-10-26T16:56:04;17.63;;;8.73;;
33830;SDS011;20137;48.834;8.732;2022-10-26T16:58:31;13.85;;;7.97;;
33830;SDS011;20137;48.834;8.732;2022-10-26T17:00:57;20.20;;;9.75;;
33830;SDS011;20137;48.834;8.732;2022-10-26T17:03:23;18.70;;;9.32;;
33830;SDS011;20137;48.834;8.732;2022-10-26T17:05:56;14.88;;;8.90;;
33830;SDS011;20137;48.834;8.732;2022-10-26T17:08:22;13.88;;;6.90;;
33830;SDS011;20137;48.834;8.732;2022-10-26T17:10:48;14.32;;;5.70;;
33830;SDS011;20137;48.834;8.732;2022-10-26T17:13:14;11.63;;;4.55;;